This is the latest recevied weather packets stored in our database for station/object KD4WLE. If no packets are shown the sender has not sent any weather packets the latest 10 day(s).
| Time | Temp. | Humidity | Pressure | Rain* | Wind** | Luminosity | Snow |
|---|---|---|---|---|---|---|---|
| 1777852900 | 22.78° C | 75% | 1017 hPa | 0 mm | - | 1 W/m² | - |
| 1777852598 | 22.78° C | 75% | 1016.9 hPa | 0 mm | - | 2 W/m² | - |
| 1777852294 | 22.78° C | 77% | 1016.9 hPa | 0 mm | - | 4 W/m² | - |
| 1777851992 | 22.78° C | 76% | 1016.9 hPa | 0 mm | - | 6 W/m² | - |
| 1777851690 | 22.78° C | 76% | 1016.8 hPa | 0 mm | - | 9 W/m² | - |
| 1777851386 | 22.78° C | 75% | 1016.8 hPa | 0 mm | - | 9 W/m² | - |
| 1777851081 | 22.78° C | 75% | 1016.8 hPa | 0 mm | - | 12 W/m² | - |
| 1777850779 | 22.78° C | 75% | 1016.9 hPa | 0 mm | - | 15 W/m² | - |
| 1777850471 | 22.78° C | 75% | 1017 hPa | 0 mm | - | 13 W/m² | - |
| 1777850169 | 22.78° C | 75% | 1016.8 hPa | 0 mm | - | 20 W/m² | - |
| 1777849865 | 22.78° C | 75% | 1016.8 hPa | 0 mm | - | 21 W/m² | - |
| 1777849561 | 22.78° C | 75% | 1016.9 hPa | 0 mm | - | 32 W/m² | - |
| 1777849253 | 22.78° C | 74% | 1016.8 hPa | 0 mm | - | 37 W/m² | - |
| 1777848950 | 22.78° C | 74% | 1017 hPa | 0 mm | - | 43 W/m² | - |
| 1777848645 | 22.78° C | 75% | 1017 hPa | 0 mm | - | 49 W/m² | - |
| 1777848343 | 22.78° C | 75% | 1016.9 hPa | 0 mm | - | 56 W/m² | - |
| 1777848040 | 22.78° C | 74% | 1016.8 hPa | 0 mm | - | 57 W/m² | - |
| 1777847733 | 22.78° C | 74% | 1016.9 hPa | 0 mm | - | 53 W/m² | - |
| 1777847427 | 23.33° C | 74% | 1016.8 hPa | 0 mm | - | 57 W/m² | - |
| 1777847126 | 23.33° C | 73% | 1016.6 hPa | 0 mm | - | 93 W/m² | - |
| 1777846823 | 23.33° C | 73% | 1016.9 hPa | 0 mm | - | 82 W/m² | - |
| 1777846521 | 22.78° C | 73% | 1016.8 hPa | 0 mm | - | 95 W/m² | - |
| 1777846219 | 23.33° C | 73% | 1016.9 hPa | 0 mm | - | 86 W/m² | - |
| 1777845915 | 22.78° C | 74% | 1017.1 hPa | 0 mm | - | 76 W/m² | - |
| 1777845611 | 23.33° C | 74% | 1016.9 hPa | 0 mm | - | 90 W/m² | - |
* Rain latest hour (hover to see other rain measurements)
** Current wind speed in m/s (hover to see current wind gust speed)